»·PEaware :: AAL292 KRNO-KLAS

AAL292 :: KRNO-KLAS

FLIGHT INFORMATION

Flight Status: Arrived
Operator:
American Airlines
More flights by this operator :: More flights under this callsign
Pilot: Alfonso U. (14209)
Aircraft: BOEING 737-800
(B738)
More flights by this aircraft type
Origin: KRNO Reno/Tahoe Intl
United States
Destination: KLAS McCarran Intl
United States
More flights between these airports :: More routes between these airports
Route: +RENO9 PESKE LIDAT J92 BTY SUNST4
File this flight plan on PilotEdge
Remarks:
Altitude:
(Current/Filed)
35,000ft
Speed:
(Current/Filed)
500kts
Departed: 31-Jul-18 10:11 AM
Arrived: 31-Jul-18 11:17 AM
Distance/Time
Traveled:
300nm/1:06
Distance/Time
To Go:
Arrived

Flight Plot

Page will automatically refresh every two minutes.

Flight plan parsing failed; only flown route is shown


Map Options




Map Legend


Flown Route
Filed Route
Departure Airport
Arrival Airport
Navaid (VOR, NDB)
Fix

Horizontal Profiles

Position Reports

Time Latitude Longitude Heading Altitude Ground
Speed
31-Jul-18 09:48 39.504485 -119.772333 317 4412ft 0kts
31-Jul-18 09:49 39.504485 -119.772333 317 4412ft 0kts
31-Jul-18 09:50 39.504485 -119.772333 317 4412ft 0kts
31-Jul-18 09:51 39.504485 -119.772333 317 4412ft 0kts
31-Jul-18 09:52 39.504485 -119.772333 317 4412ft 0kts
31-Jul-18 09:53 39.504485 -119.772333 317 4412ft 0kts
31-Jul-18 09:54 39.504485 -119.772333 317 4412ft 0kts
31-Jul-18 09:55 39.504485 -119.772333 317 4412ft 0kts
31-Jul-18 09:56 39.504485 -119.772333 317 4412ft 0kts
31-Jul-18 09:57 39.504485 -119.772333 317 4412ft 0kts
31-Jul-18 09:58 39.504485 -119.772333 317 4412ft 0kts
31-Jul-18 09:59 39.504485 -119.772333 317 4412ft 0kts
31-Jul-18 10:00 39.504485 -119.772333 317 4412ft 0kts
31-Jul-18 10:01 39.504485 -119.772333 317 4412ft 0kts
31-Jul-18 10:02 39.504485 -119.772333 317 4412ft 0kts
31-Jul-18 10:03 39.504485 -119.772333 317 4412ft 0kts
31-Jul-18 10:04 39.504256 -119.772058 316 4411ft 3kts
31-Jul-18 10:05 39.504235 -119.772031 316 4411ft 0kts
31-Jul-18 10:06 39.504236 -119.772031 316 4411ft 0kts
31-Jul-18 10:07 39.504306 -119.772116 315 4411ft 0kts
31-Jul-18 10:08 39.504306 -119.772116 315 4411ft 0kts
31-Jul-18 10:09 39.506260 -119.771490 359 4413ft 23kts
31-Jul-18 10:10 39.513605 -119.771218 40 4419ft 21kts
31-Jul-18 10:11 39.513781 -119.770484 93 4418ft 2kts
31-Jul-18 10:12 39.502365 -119.769242 180 4409ft 138kts
31-Jul-18 10:13 39.446607 -119.767608 177 5963ft 244kts
31-Jul-18 10:14 39.372321 -119.762606 178 8778ft 284kts
31-Jul-18 10:15 39.289648 -119.756909 178 11470ft 319kts
31-Jul-18 10:16 39.199901 -119.750870 178 14579ft 332kts
31-Jul-18 10:17 39.106405 -119.744504 178 17494ft 343kts
31-Jul-18 10:18 39.009531 -119.737897 178 19233ft 351kts
31-Jul-18 10:19 38.911363 -119.731179 177 21232ft 358kts
31-Jul-18 10:20 38.813867 -119.724456 177 23497ft 368kts
31-Jul-18 10:21 38.710645 -119.717287 178 25624ft 378kts
31-Jul-18 10:22 38.604839 -119.709903 178 27569ft 388kts
31-Jul-18 10:23 38.496520 -119.702308 178 29313ft 397kts
31-Jul-18 10:24 38.386593 -119.694529 179 31283ft 395kts
31-Jul-18 10:25 38.278473 -119.686817 179 33096ft 390kts
31-Jul-18 10:26 38.171105 -119.679116 180 34663ft 386kts
31-Jul-18 10:27 38.063255 -119.671402 180 35396ft 401kts
31-Jul-18 10:28 37.948956 -119.653497 153 35274ft 437kts
31-Jul-18 10:29 37.892728 -119.519083 107 35408ft 466kts
31-Jul-18 10:30 37.861465 -119.360333 107 35444ft 466kts
31-Jul-18 10:31 37.830258 -119.202617 108 35440ft 466kts
31-Jul-18 10:32 37.798672 -119.044193 108 35440ft 466kts
31-Jul-18 10:33 37.766726 -118.885307 107 35441ft 467kts
31-Jul-18 10:34 37.734557 -118.726513 107 35441ft 468kts
31-Jul-18 10:35 37.702077 -118.567329 107 35442ft 468kts
31-Jul-18 10:36 37.669473 -118.408759 107 35309ft 468kts
31-Jul-18 10:37 37.637215 -118.252898 107 35192ft 467kts
31-Jul-18 10:38 37.604138 -118.094176 107 35191ft 468kts
31-Jul-18 10:39 37.570990 -117.936298 107 35192ft 468kts
31-Jul-18 10:40 37.537527 -117.778101 107 35205ft 468kts
31-Jul-18 10:41 37.503845 -117.620041 107 35232ft 468kts
31-Jul-18 10:42 37.469936 -117.462035 107 35259ft 468kts
31-Jul-18 10:43 37.429536 -117.308669 124 35310ft 460kts
31-Jul-18 10:44 37.340281 -117.200006 150 35301ft 446kts
31-Jul-18 10:45 37.237245 -117.113817 150 35300ft 446kts
31-Jul-18 10:46 37.134113 -117.027272 150 33521ft 453kts
31-Jul-18 10:47 37.029933 -116.939698 149 30325ft 448kts
31-Jul-18 10:48 36.928830 -116.854648 148 27613ft 430kts
31-Jul-18 10:49 36.832604 -116.773685 147 25010ft 413kts
31-Jul-18 10:50 36.752394 -116.679924 132 24144ft 390kts
31-Jul-18 10:51 36.680911 -116.577806 132 24137ft 391kts
31-Jul-18 10:52 36.608834 -116.475236 132 24154ft 407kts
31-Jul-18 10:53 36.532535 -116.367065 132 24137ft 419kts
31-Jul-18 10:54 36.456170 -116.259173 133 24137ft 418kts
31-Jul-18 10:55 36.379206 -116.150825 133 24136ft 418kts
31-Jul-18 10:56 36.302878 -116.043688 133 23106ft 410kts
31-Jul-18 10:57 36.229797 -115.941432 132 21588ft 375kts
31-Jul-18 10:58 36.179812 -115.839176 113 20636ft 339kts
31-Jul-18 10:59 36.145791 -115.732184 112 18919ft 329kts
31-Jul-18 11:00 36.112652 -115.628803 112 17212ft 321kts
31-Jul-18 11:01 36.079906 -115.527212 111 15499ft 315kts
31-Jul-18 11:02 36.047663 -115.427634 111 13797ft 311kts
31-Jul-18 11:03 36.026180 -115.329960 95 12975ft 281kts
31-Jul-18 11:04 36.019833 -115.233898 95 11803ft 286kts
31-Jul-18 11:05 36.013288 -115.136007 94 10551ft 278kts
31-Jul-18 11:06 36.007617 -115.046991 94 10180ft 246kts
31-Jul-18 11:07 36.002797 -114.963994 94 8969ft 240kts
31-Jul-18 11:08 35.997966 -114.882358 94 8012ft 237kts
31-Jul-18 11:09 35.992992 -114.801137 94 8009ft 237kts
31-Jul-18 11:10 35.987680 -114.719846 94 8008ft 237kts
31-Jul-18 11:11 36.014399 -114.660342 352 8046ft 245kts
31-Jul-18 11:12 36.067344 -114.709033 298 7707ft 247kts
31-Jul-18 11:13 36.073048 -114.793242 270 6928ft 246kts
31-Jul-18 11:14 36.073642 -114.878161 269 6030ft 252kts
31-Jul-18 11:15 36.073706 -114.966604 269 4674ft 260kts
31-Jul-18 11:16 36.073714 -115.049989 270 3307ft 216kts
31-Jul-18 11:17 36.073686 -115.113573 271 2284ft 163kts
31-Jul-18 11:18 36.074776 -115.145992 302 2103ft 0kts
31-Jul-18 11:19 36.074776 -115.145992 302 2103ft 0kts
31-Jul-18 11:20 36.077318 -115.146562 0 2102ft 0kts
31-Jul-18 11:21 36.077322 -115.146562 0 2102ft 0kts
31-Jul-18 11:22 36.078260 -115.142703 89 2087ft 32kts
31-Jul-18 11:23 36.079860 -115.135270 349 2062ft 5kts
31-Jul-18 11:24 36.079885 -115.135276 348 2062ft 0kts
31-Jul-18 11:25 36.079885 -115.135276 348 2062ft 0kts
31-Jul-18 11:26 36.079885 -115.135276 348 2062ft 0kts

Navigation Log

Ident Type
Flight plan parsing failed, navigation log unavailable